Time;durP1;ratioP1;P1;durP2;ratioP2;P2;SDS_P1;SDS_P2;PMS_P1;PMS_P2;Temp;Humidity;BMP_temperature;BMP_pressure;BME280_temperature;BME280_humidity;BME280_pressure;Samples;Min_cycle;Max_cycle;Signal;HPM_P1;HPM_P2
2023/07/02 00:02:16;;;;;;;77.40;73.40;;;;;;;;;;5008061;28;20033;-61
2023/07/02 00:04:43;;;;;;;80.18;76.18;;;;;;;;;;5012090;28;20033;-60
2023/07/02 00:07:08;;;;;;;69.05;65.53;;;;;;;;;;5014656;28;20034;-61
2023/07/02 00:09:33;;;;;;;77.80;73.95;;;;;;;;;;5011249;28;20029;-61
2023/07/02 00:11:59;;;;;;;68.95;65.40;;;;;;;;;;5012718;28;20545;-61
2023/07/02 00:14:24;;;;;;;74.13;70.43;;;;;;;;;;5014172;28;20468;-60
2023/07/02 00:16:49;;;;;;;72.22;68.63;;;;;;;;;;5017018;28;20037;-61
2023/07/02 00:19:15;;;;;;;74.43;70.72;;;;;;;;;;5013494;28;20033;-60
2023/07/02 00:21:41;;;;;;;71.28;67.72;;;;;;;;;;5013550;28;20556;-61
2023/07/02 00:24:09;;;;;;;72.38;68.70;;;;;;;;;;5012555;28;20646;-60
2023/07/02 00:26:35;;;;;;;71.68;67.90;;;;;;;;;;5012199;28;20348;-61
2023/07/02 00:29:03;;;;;;;74.95;71.22;;;;;;;;;;5012125;28;20034;-60
2023/07/02 00:31:29;;;;;;;74.05;70.35;;;;;;;;;;5014670;28;20080;-60
2023/07/02 00:33:54;;;;;;;77.60;73.75;;;;;;;;;;5015685;28;20560;-60
2023/07/02 00:36:19;;;;;;;69.47;66.00;;;;;;;;;;5015604;28;20052;-60
2023/07/02 00:38:47;;;;;;;63.28;60.08;;;;;;;;;;5015780;28;20125;-60
2023/07/02 00:41:12;;;;;;;67.88;64.53;;;;;;;;;;5012121;28;20091;-60
2023/07/02 00:43:43;;;;;;;70.13;66.63;;;;;;;;;;5012075;28;20045;-60
2023/07/02 00:46:17;;;;;;;62.00;58.80;;;;;;;;;;5012834;28;20523;-60
2023/07/02 00:48:45;;;;;;;70.85;67.28;;;;;;;;;;5015531;28;20040;-59
2023/07/02 00:51:14;;;;;;;66.40;63.08;;;;;;;;;;5012191;28;20041;-59
2023/07/02 00:53:40;;;;;;;65.32;62.03;;;;;;;;;;5013586;28;20025;-59
2023/07/02 00:56:05;;;;;;;65.97;62.63;;;;;;;;;;5015026;28;20519;-59
2023/07/02 00:58:30;;;;;;;57.83;54.85;;;;;;;;;;5012293;28;20041;-59
2023/07/02 01:00:56;;;;;;;61.17;58.00;;;;;;;;;;5012190;28;20041;-59
2023/07/02 01:03:21;;;;;;;50.90;48.33;;;;;;;;;;5008175;28;20022;-59
2023/07/02 01:05:47;;;;;;;51.03;48.40;;;;;;;;;;5013534;28;20384;-59
2023/07/02 01:08:12;;;;;;;72.15;68.45;;;;;;;;;;5014241;28;20038;-59
2023/07/02 01:10:38;;;;;;;55.55;52.67;;;;;;;;;;5013318;28;20085;-59
2023/07/02 01:13:09;;;;;;;59.10;56.10;;;;;;;;;;5011832;28;20487;-59
2023/07/02 01:15:36;;;;;;;51.55;48.95;;;;;;;;;;5013261;28;20131;-59
2023/07/02 01:18:03;;;;;;;52.38;49.72;;;;;;;;;;5012183;28;20087;-59
2023/07/02 01:20:30;;;;;;;50.83;48.28;;;;;;;;;;5015648;28;20416;-59
2023/07/02 01:22:57;;;;;;;52.17;49.53;;;;;;;;;;5014698;28;20367;-59
2023/07/02 01:25:24;;;;;;;49.83;47.28;;;;;;;;;;5014404;28;20116;-59
2023/07/02 01:27:51;;;;;;;45.55;43.22;;;;;;;;;;5010853;28;20116;-59
2023/07/02 01:30:16;;;;;;;41.42;39.25;;;;;;;;;;5010134;28;20459;-59
2023/07/02 01:32:41;;;;;;;45.65;43.33;;;;;;;;;;5012335;28;20034;-59
2023/07/02 01:35:08;;;;;;;41.45;39.33;;;;;;;;;;5009235;28;20030;-59
2023/07/02 01:37:37;;;;;;;42.13;39.88;;;;;;;;;;5008287;28;20333;-59
2023/07/02 01:40:06;;;;;;;34.97;33.17;;;;;;;;;;5008956;28;20378;-59
2023/07/02 01:42:31;;;;;;;37.28;35.35;;;;;;;;;;5012623;28;20045;-60
2023/07/02 01:44:57;;;;;;;36.63;34.67;;;;;;;;;;5015159;28;20033;-59
2023/07/02 01:47:22;;;;;;;33.45;31.67;;;;;;;;;;5014647;28;20038;-59
2023/07/02 01:49:48;;;;;;;30.75;29.15;;;;;;;;;;5014362;28;20100;-59
2023/07/02 01:52:13;;;;;;;27.77;26.27;;;;;;;;;;5010859;28;20038;-59
2023/07/02 01:54:38;;;;;;;27.23;25.83;;;;;;;;;;5013742;28;20430;-59
2023/07/02 01:57:04;;;;;;;28.85;27.35;;;;;;;;;;5008295;28;20033;-59
2023/07/02 01:59:30;;;;;;;27.95;26.45;;;;;;;;;;5013327;28;20120;-59
2023/07/02 02:01:55;;;;;;;27.08;25.67;;;;;;;;;;5011051;28;20041;-59
2023/07/02 02:04:20;;;;;;;28.90;27.40;;;;;;;;;;5008334;28;20356;-59
2023/07/02 02:06:46;;;;;;;28.10;26.60;;;;;;;;;;5009967;28;20034;-65
2023/07/02 02:09:11;;;;;;;26.55;25.15;;;;;;;;;;5010052;28;20467;-65
2023/07/02 02:11:40;;;;;;;27.13;25.73;;;;;;;;;;5009978;28;20303;-65
2023/07/02 02:14:05;;;;;;;30.70;29.10;;;;;;;;;;5015773;28;20038;-65
2023/07/02 02:16:33;;;;;;;29.73;28.17;;;;;;;;;;5011867;28;20033;-65
2023/07/02 02:18:59;;;;;;;30.85;29.25;;;;;;;;;;5013834;28;20025;-60
2023/07/02 02:21:24;;;;;;;31.55;29.92;;;;;;;;;;5013500;28;20579;-65
2023/07/02 02:23:49;;;;;;;33.92;32.03;;;;;;;;;;5014134;28;20040;-59
2023/07/02 02:26:15;;;;;;;32.28;30.58;;;;;;;;;;5011784;28;20041;-59
2023/07/02 02:28:42;;;;;;;31.98;30.27;;;;;;;;;;5010011;28;20037;-59
2023/07/02 02:31:07;;;;;;;35.67;33.78;;;;;;;;;;5013422;28;20425;-59
2023/07/02 02:33:35;;;;;;;34.95;33.15;;;;;;;;;;5010772;28;20139;-59
2023/07/02 02:36:00;;;;;;;34.83;32.95;;;;;;;;;;5013424;28;20042;-65
2023/07/02 02:38:26;;;;;;;35.65;33.75;;;;;;;;;;5012266;28;20283;-59
2023/07/02 02:40:51;;;;;;;35.35;33.55;;;;;;;;;;5012555;28;20601;-59
2023/07/02 02:43:17;;;;;;;35.53;33.70;;;;;;;;;;5012436;28;20033;-67
2023/07/02 02:45:42;;;;;;;37.35;35.45;;;;;;;;;;5012989;28;20040;-66
2023/07/02 02:48:08;;;;;;;37.80;35.80;;;;;;;;;;5013597;28;20073;-66
2023/07/02 02:50:33;;;;;;;37.33;35.42;;;;;;;;;;5008945;28;20479;-65
2023/07/02 02:52:58;;;;;;;39.03;37.00;;;;;;;;;;5006871;28;20104;-66
2023/07/02 02:55:24;;;;;;;38.22;36.25;;;;;;;;;;5012000;28;20029;-66
2023/07/02 02:57:49;;;;;;;39.17;37.17;;;;;;;;;;5013722;28;20048;-59
2023/07/02 03:00:16;;;;;;;38.72;36.72;;;;;;;;;;5011842;28;20530;-59
2023/07/02 03:02:41;;;;;;;37.15;35.25;;;;;;;;;;5011866;28;20029;-65
2023/07/02 03:05:07;;;;;;;40.00;37.92;;;;;;;;;;5011978;28;20036;-59
2023/07/02 03:07:32;;;;;;;37.53;35.63;;;;;;;;;;5013010;28;20033;-59
2023/07/02 03:09:58;;;;;;;36.50;34.63;;;;;;;;;;5014176;28;20030;-65
2023/07/02 03:12:25;;;;;;;36.03;34.17;;;;;;;;;;5009777;28;20428;-67
2023/07/02 03:14:54;;;;;;;35.20;33.30;;;;;;;;;;5013834;28;20033;-61
2023/07/02 03:17:20;;;;;;;31.30;29.70;;;;;;;;;;5011835;28;20044;-67
2023/07/02 03:19:45;;;;;;;34.00;32.20;;;;;;;;;;5012608;28;20041;-67
2023/07/02 03:22:11;;;;;;;35.60;33.30;;;;;;;;;;5008691;28;20641;-66
2023/07/02 03:24:36;;;;;;;33.42;31.70;;;;;;;;;;5006799;28;20049;-66
2023/07/02 03:27:02;;;;;;;34.38;32.58;;;;;;;;;;5007868;28;20029;-66
2023/07/02 03:29:27;;;;;;;36.97;35.08;;;;;;;;;;5010290;28;20037;-68
2023/07/02 03:31:52;;;;;;;36.38;34.38;;;;;;;;;;5010959;28;20033;-67
2023/07/02 03:34:18;;;;;;;33.92;32.17;;;;;;;;;;5006844;28;20042;-67
2023/07/02 03:36:44;;;;;;;33.90;32.15;;;;;;;;;;5011173;28;20554;-67
2023/07/02 03:39:09;;;;;;;35.83;33.92;;;;;;;;;;5009606;28;20204;-67
2023/07/02 03:41:35;;;;;;;34.40;32.50;;;;;;;;;;5016708;28;20108;-66
2023/07/02 03:44:00;;;;;;;35.75;33.38;;;;;;;;;;5015083;28;20557;-66
2023/07/02 03:46:25;;;;;;;34.03;31.70;;;;;;;;;;5014159;28;20041;-60
2023/07/02 03:48:51;;;;;;;33.72;31.95;;;;;;;;;;5016025;28;20045;-60
2023/07/02 03:51:16;;;;;;;32.70;30.98;;;;;;;;;;5014488;28;20113;-67
2023/07/02 03:53:41;;;;;;;35.28;33.08;;;;;;;;;;5011696;28;20037;-67
2023/07/02 03:56:07;;;;;;;35.45;33.53;;;;;;;;;;5014959;28;20061;-66
2023/07/02 03:58:33;;;;;;;35.60;33.70;;;;;;;;;;5013940;28;20033;-60
2023/07/02 04:00:59;;;;;;;35.60;33.50;;;;;;;;;;5015260;28;20419;-60
2023/07/02 04:03:25;;;;;;;38.30;36.22;;;;;;;;;;5013248;28;20042;-66
2023/07/02 04:05:50;;;;;;;38.65;36.63;;;;;;;;;;5012959;28;20126;-67
2023/07/02 04:08:15;;;;;;;38.80;36.63;;;;;;;;;;5010085;28;20045;-66
2023/07/02 04:10:41;;;;;;;37.28;35.38;;;;;;;;;;5012447;28;20048;-66
2023/07/02 04:13:07;;;;;;;38.42;36.45;;;;;;;;;;5012862;28;20038;-66
2023/07/02 04:15:32;;;;;;;36.47;34.45;;;;;;;;;;5011606;28;20474;-60
2023/07/02 04:17:57;;;;;;;37.30;35.33;;;;;;;;;;5012099;28;20032;-68
2023/07/02 04:20:23;;;;;;;37.72;35.67;;;;;;;;;;5012074;28;20161;-67
2023/07/02 04:22:48;;;;;;;38.60;36.50;;;;;;;;;;5012757;28;20022;-67
2023/07/02 04:25:15;;;;;;;38.20;35.50;;;;;;;;;;5011893;28;20053;-60
2023/07/02 04:27:44;;;;;;;37.72;35.72;;;;;;;;;;5014350;28;20122;-65
2023/07/02 04:30:14;;;;;;;37.65;35.70;;;;;;;;;;5014384;28;20030;-67
2023/07/02 04:32:39;;;;;;;39.37;37.30;;;;;;;;;;5016248;28;20367;-60
2023/07/02 04:35:08;;;;;;;38.97;36.83;;;;;;;;;;5017116;28;20033;-68
2023/07/02 04:37:34;;;;;;;40.00;37.90;;;;;;;;;;5012328;28;20491;-60
2023/07/02 04:40:00;;;;;;;39.20;37.08;;;;;;;;;;5018058;28;20045;-60
2023/07/02 04:42:31;;;;;;;42.60;40.40;;;;;;;;;;5012304;28;20049;-60
2023/07/02 04:45:01;;;;;;;38.58;36.58;;;;;;;;;;5014480;28;20055;-66
2023/07/02 04:47:27;;;;;;;40.58;38.47;;;;;;;;;;5011830;28;20061;-60
2023/07/02 04:49:52;;;;;;;40.72;38.63;;;;;;;;;;5021764;28;20412;-67
2023/07/02 04:52:17;;;;;;;41.78;39.58;;;;;;;;;;5010383;28;20045;-67
2023/07/02 04:54:43;;;;;;;41.58;39.33;;;;;;;;;;5011954;28;20064;-66
2023/07/02 04:57:08;;;;;;;40.92;38.80;;;;;;;;;;5009506;28;20045;-60
2023/07/02 04:59:33;;;;;;;42.60;40.40;;;;;;;;;;5010063;28;20032;-61
2023/07/02 05:01:59;;;;;;;41.35;39.20;;;;;;;;;;5012422;28;20802;-60
2023/07/02 05:04:24;;;;;;;43.80;41.58;;;;;;;;;;5012995;28;20430;-60
2023/07/02 05:06:49;;;;;;;43.80;41.33;;;;;;;;;;5015097;28;20045;-60
2023/07/02 05:09:15;;;;;;;42.95;40.42;;;;;;;;;;5012720;28;20621;-68
2023/07/02 05:11:40;;;;;;;46.20;43.78;;;;;;;;;;5016172;28;20044;-68
2023/07/02 05:14:05;;;;;;;43.17;40.92;;;;;;;;;;5015056;28;20079;-68
2023/07/02 05:16:31;;;;;;;43.53;41.30;;;;;;;;;;5013929;28;20092;-68
2023/07/02 05:18:56;;;;;;;43.00;40.78;;;;;;;;;;5014088;28;20037;-60
2023/07/02 05:21:22;;;;;;;41.97;39.75;;;;;;;;;;5012921;28;20357;-60
2023/07/02 05:23:48;;;;;;;38.65;36.65;;;;;;;;;;5010985;28;20030;-60
2023/07/02 05:26:13;;;;;;;43.03;40.70;;;;;;;;;;5013286;28;20038;-60
2023/07/02 05:28:39;;;;;;;47.47;45.05;;;;;;;;;;5011138;28;20026;-60
2023/07/02 05:31:04;;;;;;;45.45;43.08;;;;;;;;;;5012314;28;20042;-67
2023/07/02 05:33:32;;;;;;;40.45;38.40;;;;;;;;;;5008553;28;20051;-60
2023/07/02 05:35:57;;;;;;;47.22;44.83;;;;;;;;;;5012479;28;20111;-60
2023/07/02 05:38:23;;;;;;;46.95;44.55;;;;;;;;;;5010017;28;20479;-68
2023/07/02 05:40:48;;;;;;;47.35;44.95;;;;;;;;;;5016384;28;20109;-60
2023/07/02 05:43:13;;;;;;;53.42;50.60;;;;;;;;;;5008792;28;20033;-60
2023/07/02 05:45:39;;;;;;;56.80;53.88;;;;;;;;;;5010081;28;20131;-61
2023/07/02 05:48:04;;;;;;;58.75;55.42;;;;;;;;;;5015862;28;20040;-69
2023/07/02 05:50:30;;;;;;;46.28;43.85;;;;;;;;;;5012391;28;20042;-69
2023/07/02 05:52:55;;;;;;;52.70;50.03;;;;;;;;;;5010664;28;20045;-69
2023/07/02 05:55:21;;;;;;;57.50;54.53;;;;;;;;;;5011116;28;20063;-69
2023/07/02 05:57:47;;;;;;;52.17;49.33;;;;;;;;;;5014458;28;20646;-69
2023/07/02 06:00:13;;;;;;;37.22;35.25;;;;;;;;;;5019055;28;20033;-70
2023/07/02 06:02:38;;;;;;;41.75;39.55;;;;;;;;;;5014134;28;20026;-70
2023/07/02 06:05:04;;;;;;;63.13;59.88;;;;;;;;;;5016460;28;20041;-61
2023/07/02 06:07:30;;;;;;;58.47;55.33;;;;;;;;;;5012720;28;20036;-61
2023/07/02 06:09:55;;;;;;;48.92;46.00;;;;;;;;;;5014934;28;20524;-60
2023/07/02 06:12:21;;;;;;;33.17;31.40;;;;;;;;;;5015885;28;20471;-68
2023/07/02 06:14:47;;;;;;;38.47;36.42;;;;;;;;;;5012343;28;20134;-68
2023/07/02 06:17:12;;;;;;;30.38;28.42;;;;;;;;;;5016376;28;20057;-60
2023/07/02 06:19:38;;;;;;;27.25;25.67;;;;;;;;;;5011414;28;20746;-61
2023/07/02 06:22:04;;;;;;;50.25;47.63;;;;;;;;;;5011216;28;20037;-61
2023/07/02 06:24:30;;;;;;;23.88;22.48;;;;;;;;;;5019345;28;20649;-60
2023/07/02 06:26:56;;;;;;;24.60;23.30;;;;;;;;;;5015407;28;20034;-61
2023/07/02 06:29:23;;;;;;;22.63;21.23;;;;;;;;;;5011629;28;20044;-60
2023/07/02 06:31:48;;;;;;;25.33;23.83;;;;;;;;;;5020402;28;20026;-60
2023/07/02 06:34:14;;;;;;;25.45;24.02;;;;;;;;;;5014547;28;20044;-59
2023/07/02 06:36:40;;;;;;;20.65;19.45;;;;;;;;;;5013398;28;20043;-65
2023/07/02 06:39:05;;;;;;;19.48;18.27;;;;;;;;;;5013061;28;20561;-59
2023/07/02 06:41:31;;;;;;;27.85;26.35;;;;;;;;;;5006830;28;20040;-61
2023/07/02 06:43:56;;;;;;;20.23;18.85;;;;;;;;;;5011913;28;20406;-67
2023/07/02 06:46:22;;;;;;;19.80;18.55;;;;;;;;;;5010456;28;20100;-60
2023/07/02 06:48:47;;;;;;;21.33;20.02;;;;;;;;;;5013896;28;20030;-66
2023/07/02 06:51:14;;;;;;;19.67;18.58;;;;;;;;;;5011613;28;20064;-60
2023/07/02 06:53:41;;;;;;;21.55;20.25;;;;;;;;;;5011466;28;20033;-61
2023/07/02 06:56:08;;;;;;;22.00;20.35;;;;;;;;;;5013465;28;20095;-61
2023/07/02 06:58:33;;;;;;;21.20;19.88;;;;;;;;;;5010109;28;20047;-60
2023/07/02 07:00:58;;;;;;;20.70;19.40;;;;;;;;;;5013455;28;20029;-67
2023/07/02 07:03:24;;;;;;;19.15;18.05;;;;;;;;;;5010410;28;20034;-65
2023/07/02 07:05:49;;;;;;;20.75;19.42;;;;;;;;;;5011978;28;20029;-62
2023/07/02 07:08:15;;;;;;;21.65;20.20;;;;;;;;;;5014179;28;20033;-62
2023/07/02 07:10:40;;;;;;;20.35;18.95;;;;;;;;;;5010240;28;20060;-62
2023/07/02 07:13:06;;;;;;;21.05;19.85;;;;;;;;;;5009955;28;20034;-62
2023/07/02 07:15:34;;;;;;;20.75;19.50;;;;;;;;;;5011095;28;20029;-61
2023/07/02 07:17:59;;;;;;;21.23;20.02;;;;;;;;;;5012011;28;20120;-61
2023/07/02 07:20:24;;;;;;;21.73;20.30;;;;;;;;;;5012568;28;20223;-61
2023/07/02 07:22:50;;;;;;;21.27;19.98;;;;;;;;;;5010721;28;20087;-66
2023/07/02 07:25:15;;;;;;;21.50;20.25;;;;;;;;;;5009242;28;20433;-61
2023/07/02 07:27:40;;;;;;;22.48;21.15;;;;;;;;;;5004586;28;20037;-59
2023/07/02 07:30:06;;;;;;;21.63;20.20;;;;;;;;;;5010803;28;20535;-59
2023/07/02 07:32:31;;;;;;;31.02;29.30;;;;;;;;;;5009264;28;20161;-59
2023/07/02 07:34:57;;;;;;;30.15;28.45;;;;;;;;;;5010383;28;20070;-62
2023/07/02 07:37:22;;;;;;;24.08;22.42;;;;;;;;;;5010564;28;20038;-66
2023/07/02 07:39:48;;;;;;;27.35;25.83;;;;;;;;;;5013303;28;20452;-66
2023/07/02 07:42:15;;;;;;;30.65;28.67;;;;;;;;;;5010894;28;20036;-60
2023/07/02 07:44:40;;;;;;;32.15;30.15;;;;;;;;;;5011076;28;20149;-60
2023/07/02 07:47:06;;;;;;;34.50;32.33;;;;;;;;;;5012203;28;20029;-60
2023/07/02 07:49:31;;;;;;;36.97;34.88;;;;;;;;;;5012760;28;20045;-60
2023/07/02 07:51:56;;;;;;;31.52;29.60;;;;;;;;;;5011113;28;20036;-60
2023/07/02 07:54:22;;;;;;;36.95;35.03;;;;;;;;;;5008541;28;20122;-61
2023/07/02 07:56:47;;;;;;;37.60;35.60;;;;;;;;;;5009964;28;20033;-60
2023/07/02 07:59:14;;;;;;;24.77;23.38;;;;;;;;;;5010757;28;20069;-60
2023/07/02 08:01:40;;;;;;;26.92;25.33;;;;;;;;;;5013508;28;20060;-68
2023/07/02 08:04:05;;;;;;;28.70;26.98;;;;;;;;;;5016080;28;20565;-60
2023/07/02 08:06:31;;;;;;;40.20;37.72;;;;;;;;;;5011108;28;20092;-61
2023/07/02 08:08:57;;;;;;;36.08;33.95;;;;;;;;;;5010057;28;20605;-60
2023/07/02 08:11:22;;;;;;;37.78;34.90;;;;;;;;;;5009825;28;20095;-60
2023/07/02 08:13:47;;;;;;;49.88;47.20;;;;;;;;;;4999087;28;20040;-60
2023/07/02 08:16:13;;;;;;;45.10;42.53;;;;;;;;;;5006134;28;20479;-60
2023/07/02 08:18:38;;;;;;;76.43;72.57;;;;;;;;;;5011118;28;20037;-60
2023/07/02 08:21:06;;;;;;;80.53;76.35;;;;;;;;;;5008307;28;20160;-67
2023/07/02 08:23:31;;;;;;;128.50;122.05;;;;;;;;;;5011892;28;20257;-67
2023/07/02 08:25:57;;;;;;;72.65;68.60;;;;;;;;;;5010456;28;20087;-67
2023/07/02 08:28:22;;;;;;;137.93;131.10;;;;;;;;;;5011028;28;20065;-67
2023/07/02 08:30:48;;;;;;;116.82;110.85;;;;;;;;;;5016002;28;20034;-60
2023/07/02 08:33:13;;;;;;;137.00;129.60;;;;;;;;;;5016001;28;20056;-67
2023/07/02 08:35:39;;;;;;;149.20;141.77;;;;;;;;;;5015545;28;20061;-60
2023/07/02 08:38:04;;;;;;;62.35;59.15;;;;;;;;;;5012197;28;20068;-67
2023/07/02 08:40:29;;;;;;;94.28;89.50;;;;;;;;;;5017957;28;20032;-60
2023/07/02 08:42:55;;;;;;;109.25;103.80;;;;;;;;;;5012313;28;20577;-60
2023/07/02 08:45:24;;;;;;;182.85;173.85;;;;;;;;;;5014068;28;20042;-60
2023/07/02 08:47:50;;;;;;;151.82;144.27;;;;;;;;;;5015245;28;20037;-60
2023/07/02 08:50:16;;;;;;;146.45;139.23;;;;;;;;;;5014595;28;20557;-60
2023/07/02 08:52:43;;;;;;;189.07;179.90;;;;;;;;;;5013732;28;20029;-65
2023/07/02 08:55:08;;;;;;;172.90;164.43;;;;;;;;;;5014913;28;20530;-66
2023/07/02 08:57:35;;;;;;;211.50;201.25;;;;;;;;;;5010315;28;20053;-60
2023/07/02 09:00:05;;;;;;;190.93;181.48;;;;;;;;;;5015108;28;20704;-60
2023/07/02 09:02:34;;;;;;;135.68;128.82;;;;;;;;;;5011369;28;20040;-66
2023/07/02 09:05:01;;;;;;;109.80;104.32;;;;;;;;;;5014589;28;20037;-59
2023/07/02 09:07:26;;;;;;;82.32;77.85;;;;;;;;;;5014253;28;20034;-66
2023/07/02 09:09:51;;;;;;;185.88;176.50;;;;;;;;;;5013782;28;20092;-66
2023/07/02 09:12:28;;;;;;;107.82;102.47;;;;;;;;;;5014646;28;20109;-59
2023/07/02 09:15:06;;;;;;;182.95;173.80;;;;;;;;;;5014537;28;20040;-66
2023/07/02 09:17:37;;;;;;;163.73;154.52;;;;;;;;;;5013839;28;20048;-59
2023/07/02 09:20:06;;;;;;;148.02;140.68;;;;;;;;;;5013774;28;20040;-66
2023/07/02 09:22:32;;;;;;;129.23;122.73;;;;;;;;;;5012107;28;20064;-60
2023/07/02 09:24:59;;;;;;;151.70;144.20;;;;;;;;;;5013440;28;20108;-66
2023/07/02 09:27:38;;;;;;;164.77;156.68;;;;;;;;;;5014252;28;20113;-66
2023/07/02 09:30:21;;;;;;;125.55;119.15;;;;;;;;;;5014681;28;20044;-60
2023/07/02 09:32:47;;;;;;;176.90;168.00;;;;;;;;;;5014090;28;20042;-60
2023/07/02 09:35:13;;;;;;;30.67;28.98;;;;;;;;;;5014794;28;20040;-68
2023/07/02 09:37:39;;;;;;;36.33;34.38;;;;;;;;;;5010315;28;20033;-66
2023/07/02 09:40:07;;;;;;;25.20;23.70;;;;;;;;;;5014717;28;20483;-66
2023/07/02 09:42:34;;;;;;;24.17;22.73;;;;;;;;;;5012100;28;20409;-60
2023/07/02 09:45:01;;;;;;;19.48;18.27;;;;;;;;;;5012841;28;20128;-66
2023/07/02 09:47:28;;;;;;;19.05;17.95;;;;;;;;;;5010650;28;20097;-65
2023/07/02 09:49:57;;;;;;;20.55;19.05;;;;;;;;;;5012271;28;20057;-61
2023/07/02 09:52:23;;;;;;;23.85;17.77;;;;;;;;;;5014499;28;20038;-66
2023/07/02 09:54:48;;;;;;;19.30;18.00;;;;;;;;;;5012566;28;20041;-66
2023/07/02 09:57:14;;;;;;;26.73;25.00;;;;;;;;;;5012770;28;20042;-64
2023/07/02 09:59:40;;;;;;;17.83;16.83;;;;;;;;;;5010832;28;20038;-67
2023/07/02 10:02:07;;;;;;;273.77;260.45;;;;;;;;;;5012075;28;20080;-65
2023/07/02 10:04:44;;;;;;;24.42;22.92;;;;;;;;;;5015260;28;20376;-65
2023/07/02 10:07:10;;;;;;;28.90;27.23;;;;;;;;;;5008570;28;20408;-67
2023/07/02 10:09:39;;;;;;;22.63;21.20;;;;;;;;;;5015643;28;20101;-65
2023/07/02 10:12:19;;;;;;;19.75;18.58;;;;;;;;;;5010985;28;20720;-67
2023/07/02 10:14:45;;;;;;;25.60;24.13;;;;;;;;;;5015844;28;20037;-59
2023/07/02 10:17:22;;;;;;;22.50;21.10;;;;;;;;;;5012412;28;20029;-59
2023/07/02 10:19:52;;;;;;;21.55;20.25;;;;;;;;;;5010183;28;20068;-66
2023/07/02 10:22:17;;;;;;;21.48;20.15;;;;;;;;;;5013590;28;20115;-66
2023/07/02 10:24:59;;;;;;;18.75;17.65;;;;;;;;;;5014451;28;20132;-66
2023/07/02 10:27:38;;;;;;;20.67;19.42;;;;;;;;;;5012258;28;20073;-65
2023/07/02 10:30:05;;;;;;;23.10;21.55;;;;;;;;;;5013607;28;20037;-65
2023/07/02 10:32:31;;;;;;;24.83;23.38;;;;;;;;;;5010443;28;20661;-66
2023/07/02 10:34:58;;;;;;;20.35;19.20;;;;;;;;;;5012580;28;20038;-59
2023/07/02 10:37:24;;;;;;;22.65;21.25;;;;;;;;;;5009721;28;20072;-59
2023/07/02 10:39:49;;;;;;;22.73;21.48;;;;;;;;;;5012562;28;20029;-59
2023/07/02 10:42:14;;;;;;;19.52;18.42;;;;;;;;;;5014745;28;20046;-59
2023/07/02 10:44:49;;;;;;;19.35;18.05;;;;;;;;;;5010773;28;20029;-59
2023/07/02 10:47:14;;;;;;;21.70;20.30;;;;;;;;;;5013460;28;20038;-59
2023/07/02 10:49:40;;;;;;;23.10;21.77;;;;;;;;;;5013754;28;20372;-59
2023/07/02 10:52:07;;;;;;;38.88;36.83;;;;;;;;;;5008924;28;20034;-60
2023/07/02 10:54:48;;;;;;;50.33;47.50;;;;;;;;;;5011828;28;20056;-61
2023/07/02 10:57:20;;;;;;;43.70;41.28;;;;;;;;;;5013159;28;20280;-60
2023/07/02 10:59:46;;;;;;;32.45;30.67;;;;;;;;;;5010683;28;20033;-58
2023/07/02 11:02:11;;;;;;;42.22;39.60;;;;;;;;;;5011329;28;20034;-59
2023/07/02 11:04:37;;;;;;;41.65;39.20;;;;;;;;;;5011829;28;20273;-60
2023/07/02 11:07:03;;;;;;;57.45;54.45;;;;;;;;;;4994189;28;20674;-58
2023/07/02 11:09:29;;;;;;;70.28;66.72;;;;;;;;;;5015100;28;20045;-59
2023/07/02 11:11:56;;;;;;;77.90;73.93;;;;;;;;;;5012297;28;20753;-59
2023/07/02 11:14:35;;;;;;;79.22;75.20;;;;;;;;;;5010463;28;20076;-59
2023/07/02 11:17:06;;;;;;;88.28;83.90;;;;;;;;;;5012837;28;20037;-59
2023/07/02 11:19:35;;;;;;;100.07;95.05;;;;;;;;;;5007937;28;20471;-60
2023/07/02 11:22:02;;;;;;;99.55;94.40;;;;;;;;;;5007474;28;20025;-60
2023/07/02 11:24:32;;;;;;;106.50;101.22;;;;;;;;;;5011470;28;20144;-61
2023/07/02 11:26:59;;;;;;;108.80;102.47;;;;;;;;;;5009681;28;20535;-60
2023/07/02 11:29:24;;;;;;;120.38;114.38;;;;;;;;;;5013673;28;20585;-59
2023/07/02 11:31:50;;;;;;;100.22;95.15;;;;;;;;;;5007191;28;20041;-61
2023/07/02 11:34:21;;;;;;;112.90;107.25;;;;;;;;;;5013413;28;20091;-60
2023/07/02 11:36:47;;;;;;;110.47;104.88;;;;;;;;;;5012181;28;20033;-60
2023/07/02 11:39:15;;;;;;;98.90;93.93;;;;;;;;;;5009899;28;20157;-60
2023/07/02 11:41:42;;;;;;;101.07;95.88;;;;;;;;;;5007208;28;20033;-60
2023/07/02 11:44:08;;;;;;;103.40;98.13;;;;;;;;;;5011090;28;20067;-59
2023/07/02 11:46:34;;;;;;;120.57;114.60;;;;;;;;;;5009862;28;20555;-61
2023/07/02 11:49:04;;;;;;;105.47;100.22;;;;;;;;;;5011239;28;20037;-60
2023/07/02 11:51:31;;;;;;;;;;;;;;;;;;5006584;28;20772;-61
2023/07/02 11:53:56;;;;;;;103.10;97.63;;;;;;;;;;5011090;28;20362;-61
2023/07/02 11:56:22;;;;;;;101.60;96.32;;;;;;;;;;5010661;28;20046;-61
2023/07/02 11:58:47;;;;;;;107.43;101.80;;;;;;;;;;5010356;28;20029;-61
2023/07/02 12:01:12;;;;;;;123.97;117.72;;;;;;;;;;5011948;28;20514;-59
2023/07/02 12:03:38;;;;;;;101.57;96.47;;;;;;;;;;5016040;28;20025;-59
2023/07/02 12:06:03;;;;;;;114.13;108.13;;;;;;;;;;5017275;28;20034;-61
2023/07/02 12:08:28;;;;;;;123.78;117.57;;;;;;;;;;5018072;28;20065;-61
2023/07/02 12:10:54;;;;;;;106.13;100.60;;;;;;;;;;5012580;28;20096;-61
2023/07/02 12:13:20;;;;;;;103.50;98.28;;;;;;;;;;5016268;28;20034;-59
2023/07/02 12:15:47;;;;;;;117.38;111.43;;;;;;;;;;5013933;28;20046;-61
2023/07/02 12:18:12;;;;;;;101.13;95.88;;;;;;;;;;5017542;28;20037;-60
2023/07/02 12:20:39;;;;;;;135.35;128.52;;;;;;;;;;5014002;28;20040;-60
2023/07/02 12:23:05;;;;;;;94.90;89.50;;;;;;;;;;5010581;28;20029;-61
2023/07/02 12:25:31;;;;;;;156.10;148.27;;;;;;;;;;5011666;28;20053;-61
2023/07/02 12:27:56;;;;;;;110.60;105.00;;;;;;;;;;5011922;28;20037;-61
2023/07/02 12:30:21;;;;;;;120.43;114.47;;;;;;;;;;5011797;28;20047;-61
2023/07/02 12:32:47;;;;;;;132.20;125.45;;;;;;;;;;5011827;28;20034;-61
2023/07/02 12:35:12;;;;;;;105.10;99.78;;;;;;;;;;5011367;28;20034;-61
2023/07/02 12:37:49;;;;;;;113.55;107.80;;;;;;;;;;5014332;28;20034;-61
2023/07/02 12:40:15;;;;;;;109.03;103.45;;;;;;;;;;5011710;28;20562;-60
2023/07/02 12:42:42;;;;;;;133.45;126.82;;;;;;;;;;5014609;28;20068;-61
2023/07/02 12:45:08;;;;;;;143.90;136.50;;;;;;;;;;5020578;28;20367;-60
2023/07/02 12:47:33;;;;;;;143.38;136.25;;;;;;;;;;5013843;28;20041;-60
2023/07/02 12:49:58;;;;;;;145.45;138.07;;;;;;;;;;5015388;28;20037;-61
2023/07/02 12:52:24;;;;;;;142.20;135.15;;;;;;;;;;5012506;28;20116;-60
2023/07/02 12:54:49;;;;;;;148.50;141.05;;;;;;;;;;5013293;28;20033;-61
2023/07/02 12:57:14;;;;;;;136.63;129.85;;;;;;;;;;5015925;28;20068;-60
2023/07/02 12:59:40;;;;;;;140.27;133.25;;;;;;;;;;5015505;28;20033;-58
2023/07/02 13:02:05;;;;;;;108.70;103.20;;;;;;;;;;5016132;28;20091;-59
2023/07/02 13:04:31;;;;;;;119.97;113.78;;;;;;;;;;5015011;28;20095;-59
2023/07/02 13:06:56;;;;;;;149.65;142.02;;;;;;;;;;5016235;28;20380;-59
2023/07/02 13:09:21;;;;;;;133.63;126.82;;;;;;;;;;5014337;28;20037;-59
2023/07/02 13:11:47;;;;;;;100.32;95.22;;;;;;;;;;5013837;28;20514;-60
2023/07/02 13:14:12;;;;;;;118.78;112.72;;;;;;;;;;5011918;28;20038;-58
2023/07/02 13:16:37;;;;;;;80.22;75.97;;;;;;;;;;5007195;28;20033;-59
2023/07/02 13:19:03;;;;;;;112.57;106.88;;;;;;;;;;5011746;28;20046;-59
2023/07/02 13:21:28;;;;;;;109.25;103.65;;;;;;;;;;5013116;28;20058;-59
2023/07/02 13:23:54;;;;;;;104.80;99.30;;;;;;;;;;5010116;28;20040;-59
2023/07/02 13:26:19;;;;;;;88.38;83.88;;;;;;;;;;5013669;28;20033;-67
2023/07/02 13:28:47;;;;;;;86.45;81.90;;;;;;;;;;5009204;28;20044;-59
2023/07/02 13:31:16;;;;;;;119.70;113.78;;;;;;;;;;5010460;28;20053;-59
2023/07/02 13:33:42;;;;;;;114.72;108.93;;;;;;;;;;5011548;28;20545;-65
2023/07/02 13:36:08;;;;;;;143.90;136.68;;;;;;;;;;5008948;28;20413;-67
2023/07/02 13:38:33;;;;;;;120.55;114.53;;;;;;;;;;5008947;28;20053;-68
2023/07/02 13:40:59;;;;;;;97.25;92.03;;;;;;;;;;5014777;28;20033;-59
2023/07/02 13:43:25;;;;;;;94.05;89.28;;;;;;;;;;5014670;28;20037;-58
2023/07/02 13:45:50;;;;;;;88.55;84.07;;;;;;;;;;5014044;28;20033;-59
2023/07/02 13:48:16;;;;;;;126.57;120.25;;;;;;;;;;5012071;28;20135;-66
2023/07/02 13:50:41;;;;;;;130.40;123.75;;;;;;;;;;5013799;28;20033;-59
2023/07/02 13:53:08;;;;;;;138.23;131.18;;;;;;;;;;5010426;28;20064;-59
2023/07/02 13:55:33;;;;;;;101.20;95.82;;;;;;;;;;5012791;28;20108;-59
2023/07/02 13:57:59;;;;;;;107.10;101.63;;;;;;;;;;5014707;28;20112;-58
2023/07/02 14:00:25;;;;;;;100.22;95.03;;;;;;;;;;5017242;28;20057;-59
2023/07/02 14:02:51;;;;;;;52.72;50.00;;;;;;;;;;5013857;28;20095;-60
2023/07/02 14:05:16;;;;;;;86.25;81.82;;;;;;;;;;5013780;28;20040;-59
2023/07/02 14:07:41;;;;;;;77.68;73.72;;;;;;;;;;5010017;28;20695;-59